Pemaquid Point Lighthouse, ME

43° 50' 13"N, 69° 30' 22"W, Elevation 40 ft.
Eastern Time

Hourly observations for the last 72 hours

Date Time Temperature (°F) Humi-
dity

(%)
Wind
(mph)
Pressure Rain (in) Sun
(W/m2)
UV ET
(in)
Air Dew 6 Hour 1 Hr 3 Hr 6 Hr Day
Alt
(in)
Sea
Level

(mb)
Max Min
28 08:00 38.4 30.5 39.9 36.4 73 NE 11 G 14 30.14 1020.5 0.00 37 0.0 0.010
28 07:00 37.8 29.2 71 NE 9 G 14 30.14 1020.7 0.00 0 0.0 0.009
28 06:00 37.0 28.1 70 NE 10 G 14 30.16 1021.3 0.00 0 0.0 0.007
28 05:00 36.4 28.6 73 N 4 G 9 30.16 1021.5 0.00 0 0.0 0.006
28 04:00 37.4 28.5 70 N 5 G 9 30.15 1021.0 0.00 0 0.0 0.005
28 03:00 38.6 27.1 63 N 4 G 9 30.13 1020.4 0.00 0 0.0 0.004
28 02:00 39.9 26.7 44.8 39.9 59 NNW 2 G 6 30.15 1021.1 0.00 0 0.0 0.002
28 01:00 40.9 25.1 53 N 6 G 10 30.15 1021.0 0.00 0 0.0 0.000
28 00:00 42.1 24.8 50 NNW 9 G 19 30.15 1021.1 0.04 0 0.0 0.071
27 23:00 41.9 28.2 58 NNW 6 G 11 30.15 1020.9 0.04 0 0.0 0.069
27 22:00 42.7 31.0 63 NNW 6 G 12 30.15 1020.9 0.04 0 0.0 0.067
27 21:00 43.2 32.2 65 NNW 4 G 9 30.14 1020.7 0.04 0 0.0 0.065
27 20:00 44.8 33.4 51.6 44.1 64 NNW 6 G 11 30.15 1020.9 0.04 0 0.0 0.063
27 19:00 44.9 33.9 65 NNW 6 G 11 30.14 1020.6 0.04 0 0.0 0.062
27 18:00 44.5 32.3 62 N 3 G 11 30.07 1018.2 0.04 0 0.0 0.060
27 17:00 45.9 32.8 60 NNW 7 G 13 30.08 1018.6 0.04 33 0.0 0.057
27 16:00 48.7 34.6 58 NW 9 G 17 30.08 1018.6 0.04 111 0.0 0.051
27 15:00 51.2 36.0 56 NW 10 G 15 30.08 1018.5 0.04 355 1.0 0.040
27 14:00 51.1 36.8 51.3 45.0 58 NW 14 G 24 30.08 1018.6 0.04 369 1.9 0.029
27 13:00 50.9 39.6 65 NW 7 G 17 30.10 1019.3 0.04 517 2.4 0.017
27 12:00 49.2 39.8 70 NW 10 G 22 30.11 1019.6 0.04 601 2.4 0.007
27 11:00 46.8 41.9 83 NNW 11 G 18 30.11 1019.7 0.04 172 1.4 0.003
27 10:00 46.1 43.0 89 NW 7 G 13 30.11 1019.6 0.04 142 0.8 0.001
27 09:00 45.3 43.1 92 NW 5 G 9 30.12 1020.0 0.04 30 0.0 0.000
27 08:00 45.3 43.4 46.3 44.7 93 NNW 4 G 9 30.10 1019.2 0.01 0.01 0.04 11 0.0 0.000
27 07:00 45.3 43.4 93 NNW 4 G 8 30.07 1018.4 0.04 0 0.0 0.000
27 06:00 45.9 44.3 94 NW 5 G 13 30.05 1017.7 0.01 0.04 0 0.0 0.000
27 05:00 45.8 44.5 95 WNW 6 G 13 30.03 1017.0 0.03 0 0.0 0.000
27 04:00 45.4 44.1 95 WNW 5 G 13 30.03 1016.9 0.03 0 0.0 0.000
27 03:00 45.1 43.8 95 NW 4 G 9 30.01 1016.3 0.03 0 0.0 0.000
27 02:00 44.9 43.6 52.8 44.9 95 NW 10 G 23 30.02 1016.6 0.01 0.03 0.03 0.03 0 0.0 0.000
27 01:00 46.4 44.8 94 NW 11 G 17 30.01 1016.2 0.02 0.02 0 0.0 0.000
27 00:00 52.7 51.3 95 W 7 G 12 30.02 1016.5 0.02 0 0.0 0.048
26 23:00 52.5 51.1 95 SSW 5 G 9 30.03 1017.1 0.02 0 0.0 0.048
26 22:00 52.6 50.9 94 SW 3 G 10 30.06 1018.1 0.02 0 0.0 0.048
26 21:00 52.0 50.3 94 S 10 G 11 30.07 1018.3 0.02 0 0.0 0.048
26 20:00 51.5 49.5 51.5 48.0 93 S 9 G 11 30.11 1019.8 0.02 0 0.0 0.047
26 19:00 50.2 47.7 91 E 8 G 10 30.14 1020.6 0.02 0 0.0 0.046
26 18:00 49.6 46.8 90 E 11 G 14 30.14 1020.7 0.02 0 0.0 0.045
26 17:00 48.8 45.7 89 E 13 G 15 30.16 1021.2 0.02 7 0.0 0.044
26 16:00 48.8 44.8 86 E 12 G 17 30.20 1022.7 0.02 19 0.0 0.042
26 15:00 48.5 43.6 83 E 12 G 16 30.22 1023.3 0.02 49 0.0 0.039
26 14:00 48.0 42.1 48.1 42.6 80 E 13 G 16 30.23 1023.8 0.02 0.02 128 0.8 0.036
26 13:00 47.7 41.2 78 E 13 G 16 30.27 1025.1 0.02 58 0.6 0.032
26 12:00 47.2 40.7 78 E 15 G 19 30.31 1026.4 0.02 72 0.5 0.028
26 11:00 47.3 41.8 81 E 17 G 20 30.33 1027.1 0.02 0.02 172 1.1 0.024
26 10:00 46.6 41.4 82 E 18 G 23 30.35 1027.7 0.02 84 0.6 0.021
26 09:00 46.1 40.6 81 E 17 G 20 30.37 1028.3 0.02 0.02 47 0.0 0.019
26 08:00 42.8 36.4 46.4 40.9 78 N 8 G 12 30.38 1028.6 0.00 12 0.0 0.017
26 07:00 46.2 37.3 71 E 11 G 16 30.38 1028.7 0.00 0 0.0 0.014
26 06:00 45.6 36.0 69 E 16 G 19 30.36 1028.2 0.00 0 0.0 0.011
26 05:00 45.2 36.7 72 E 22 G 25 30.36 1028.0 0.00 0 0.0 0.008
26 04:00 44.9 35.0 68 ENE 13 G 21 30.38 1028.6 0.00 0 0.0 0.005
26 03:00 44.3 34.4 68 ENE 13 G 18 30.38 1028.9 0.00 0 0.0 0.003
26 02:00 43.3 34.5 44.3 41.3 71 NE 14 G 20 30.37 1028.4 0.00 0 0.0 0.001
26 01:00 41.4 34.1 75 NNE 10 G 15 30.39 1029.1 0.00 0 0.0 0.000
26 00:00 43.5 35.4 73 N 8 G 17 30.39 1029.3 0.00 0 0.0 0.078
25 23:00 44.0 35.2 71 NE 14 G 18 30.37 1028.5 0.00 0 0.0 0.076
25 22:00 42.3 31.8 66 N 6 G 12 30.38 1028.9 0.00 0 0.0 0.074
25 21:00 42.5 31.6 65 N 7 G 14 30.36 1028.3 0.00 0 0.0 0.072
25 20:00 42.8 30.7 49.2 42.4 62 N 6 G 10 30.36 1028.0 0.00 0 0.0 0.070
25 19:00 42.7 30.6 62 N 5 G 8 30.35 1027.7 0.00 0 0.0 0.068
25 18:00 44.0 29.7 57 N 4 G 7 30.32 1026.9 0.00 0 0.0 0.067
25 17:00 47.2 29.5 50 N 1 G 5 30.31 1026.3 0.00 46 0.0 0.063
25 16:00 48.5 29.2 47 WNW 2 G 10 30.29 1025.6 0.00 267 0.5 0.056
25 15:00 47.9 29.7 49 N 4 G 10 30.26 1024.9 0.00 359 0.9 0.047
25 14:00 46.9 30.7 46.9 38.1 53 WNW 9 G 22 30.25 1024.5 0.00 327 1.5 0.039
25 13:00 46.4 31.1 55 WNW 8 G 14 30.25 1024.4 0.00 383 1.9 0.029
25 12:00 45.6 31.7 58 NNW 8 G 16 30.25 1024.3 0.00 540 2.1 0.018
25 11:00 44.1 31.9 62 N 12 G 20 30.24 1024.2 0.00 536 1.8 0.011
25 10:00 42.4 32.6 68 N 12 G 16 30.24 1024.1 0.00 47 0.0 0.009
25 09:00 40.2 33.2 76 NW 5 G 12 30.22 1023.5 0.00 39 0.0 0.008

Data generated by WxSolution Version 1.9.1.8, Build 2020.02.16.